Westfield, Illinois
Current Conditions -  °F | °C
As of 9:53 AM on Friday 21 Nov 2014 (Local Time) from KMTO Reporting Station
Clear Clear  
Wind Chill: 16°   Ceiling: Unl
Heat Index: 26°   Visibility: 10mi
Dew Point: 11°   Wind: 12mph
Humidity: 53%   Direction: 140°SE
Pressure: 30.47"   Gusts: NA
Location:  39.46°N, 88°W
Report Text: KMTO 211553Z AUTO 14010KT 10SM CLR M03/M12 A3047 RMK AO2 SLP328 T10331117
Loading
Personal Weather Stations






























Interactive Weather Map New forecast layout! Learn more

10-Day Weather Forecast

Advertisements
Track Severe Weather on mobile